sensor_id;sensor_type;location;lat;lon;timestamp;P1;durP1;ratioP1;P2;durP2;ratioP2
22794;SDS011;11564;50.920;11.612;2023-02-15T00:00:09;28.53;;;14.27;;
22794;SDS011;11564;50.920;11.612;2023-02-15T00:02:38;32.00;;;14.60;;
22794;SDS011;11564;50.920;11.612;2023-02-15T00:05:04;29.10;;;14.00;;
22794;SDS011;11564;50.920;11.612;2023-02-15T00:07:30;98.60;;;16.83;;
22794;SDS011;11564;50.920;11.612;2023-02-15T00:09:56;302.57;;;20.87;;
22794;SDS011;11564;50.920;11.612;2023-02-15T00:12:21;34.63;;;13.17;;
22794;SDS011;11564;50.920;11.612;2023-02-15T00:14:47;274.27;;;21.57;;
22794;SDS011;11564;50.920;11.612;2023-02-15T00:17:13;237.50;;;21.30;;
22794;SDS011;11564;50.920;11.612;2023-02-15T00:19:38;105.97;;;15.13;;
22794;SDS011;11564;50.920;11.612;2023-02-15T00:22:05;262.63;;;22.63;;
22794;SDS011;11564;50.920;11.612;2023-02-15T00:24:31;68.23;;;11.63;;
22794;SDS011;11564;50.920;11.612;2023-02-15T00:26:57;190.30;;;18.40;;
22794;SDS011;11564;50.920;11.612;2023-02-15T00:29:23;137.17;;;17.33;;
22794;SDS011;11564;50.920;11.612;2023-02-15T00:31:49;175.53;;;17.57;;
22794;SDS011;11564;50.920;11.612;2023-02-15T00:34:21;170.57;;;16.23;;
22794;SDS011;11564;50.920;11.612;2023-02-15T00:36:50;183.60;;;19.00;;
22794;SDS011;11564;50.920;11.612;2023-02-15T00:39:16;111.30;;;12.90;;
22794;SDS011;11564;50.920;11.612;2023-02-15T00:41:42;331.27;;;22.63;;
22794;SDS011;11564;50.920;11.612;2023-02-15T00:44:08;57.27;;;10.20;;
22794;SDS011;11564;50.920;11.612;2023-02-15T00:46:34;91.03;;;13.00;;
22794;SDS011;11564;50.920;11.612;2023-02-15T00:49:01;99.03;;;15.33;;
22794;SDS011;11564;50.920;11.612;2023-02-15T00:51:27;68.70;;;12.60;;
22794;SDS011;11564;50.920;11.612;2023-02-15T00:53:53;40.97;;;10.93;;
22794;SDS011;11564;50.920;11.612;2023-02-15T00:56:19;117.63;;;12.87;;
22794;SDS011;11564;50.920;11.612;2023-02-15T00:58:45;193.27;;;15.40;;
22794;SDS011;11564;50.920;11.612;2023-02-15T01:01:11;186.67;;;14.33;;
22794;SDS011;11564;50.920;11.612;2023-02-15T01:03:40;96.97;;;11.83;;
22794;SDS011;11564;50.920;11.612;2023-02-15T01:06:09;141.93;;;13.73;;
22794;SDS011;11564;50.920;11.612;2023-02-15T01:08:36;70.33;;;12.30;;
22794;SDS011;11564;50.920;11.612;2023-02-15T01:11:06;180.23;;;15.70;;
22794;SDS011;11564;50.920;11.612;2023-02-15T01:13:34;140.53;;;15.47;;
22794;SDS011;11564;50.920;11.612;2023-02-15T01:16:00;171.70;;;17.27;;
22794;SDS011;11564;50.920;11.612;2023-02-15T01:18:26;99.47;;;15.53;;
22794;SDS011;11564;50.920;11.612;2023-02-15T01:20:52;53.67;;;12.40;;
22794;SDS011;11564;50.920;11.612;2023-02-15T01:23:18;77.63;;;13.60;;
22794;SDS011;11564;50.920;11.612;2023-02-15T01:25:44;35.23;;;12.47;;
22794;SDS011;11564;50.920;11.612;2023-02-15T01:28:09;68.23;;;13.50;;
22794;SDS011;11564;50.920;11.612;2023-02-15T01:30:35;83.27;;;13.53;;
22794;SDS011;11564;50.920;11.612;2023-02-15T01:33:01;73.40;;;13.70;;
22794;SDS011;11564;50.920;11.612;2023-02-15T01:35:27;142.47;;;13.97;;
22794;SDS011;11564;50.920;11.612;2023-02-15T01:37:53;80.13;;;12.83;;
22794;SDS011;11564;50.920;11.612;2023-02-15T01:40:20;33.50;;;11.00;;
22794;SDS011;11564;50.920;11.612;2023-02-15T01:42:46;104.30;;;11.43;;
22794;SDS011;11564;50.920;11.612;2023-02-15T01:45:29;74.27;;;11.87;;
22794;SDS011;11564;50.920;11.612;2023-02-15T01:48:14;94.30;;;11.73;;
22794;SDS011;11564;50.920;11.612;2023-02-15T01:50:52;25.73;;;8.77;;
22794;SDS011;11564;50.920;11.612;2023-02-15T01:53:22;28.00;;;9.50;;
22794;SDS011;11564;50.920;11.612;2023-02-15T01:55:57;39.30;;;10.80;;
22794;SDS011;11564;50.920;11.612;2023-02-15T01:58:29;49.37;;;9.50;;
22794;SDS011;11564;50.920;11.612;2023-02-15T02:00:57;73.87;;;11.40;;
22794;SDS011;11564;50.920;11.612;2023-02-15T02:03:36;32.53;;;9.13;;
22794;SDS011;11564;50.920;11.612;2023-02-15T02:06:19;25.80;;;8.60;;
22794;SDS011;11564;50.920;11.612;2023-02-15T02:08:45;35.93;;;8.73;;
22794;SDS011;11564;50.920;11.612;2023-02-15T02:11:12;26.70;;;8.37;;
22794;SDS011;11564;50.920;11.612;2023-02-15T02:13:39;27.03;;;8.57;;
22794;SDS011;11564;50.920;11.612;2023-02-15T02:27:47;45.23;;;9.40;;
22794;SDS011;11564;50.920;11.612;2023-02-15T02:36:31;29.27;;;7.83;;
22794;SDS011;11564;50.920;11.612;2023-02-15T02:39:23;8.10;;;7.30;;
22794;SDS011;11564;50.920;11.612;2023-02-15T02:42:01;27.33;;;8.23;;
22794;SDS011;11564;50.920;11.612;2023-02-15T02:44:36;30.40;;;9.27;;
22794;SDS011;11564;50.920;11.612;2023-02-15T02:49:58;10.80;;;6.97;;
22794;SDS011;11564;50.920;11.612;2023-02-15T02:55:05;41.97;;;8.90;;
22794;SDS011;11564;50.920;11.612;2023-02-15T02:57:43;28.17;;;9.70;;
22794;SDS011;11564;50.920;11.612;2023-02-15T03:00:24;29.57;;;8.67;;
22794;SDS011;11564;50.920;11.612;2023-02-15T03:02:57;30.77;;;7.97;;
22794;SDS011;11564;50.920;11.612;2023-02-15T03:05:47;66.47;;;10.07;;
22794;SDS011;11564;50.920;11.612;2023-02-15T03:08:18;49.73;;;8.83;;
22794;SDS011;11564;50.920;11.612;2023-02-15T03:10:51;49.17;;;9.10;;
22794;SDS011;11564;50.920;11.612;2023-02-15T03:13:20;70.90;;;10.53;;
22794;SDS011;11564;50.920;11.612;2023-02-15T03:15:48;9.50;;;6.83;;
22794;SDS011;11564;50.920;11.612;2023-02-15T03:18:35;62.93;;;9.10;;
22794;SDS011;11564;50.920;11.612;2023-02-15T03:21:05;43.33;;;9.87;;
22794;SDS011;11564;50.920;11.612;2023-02-15T03:23:33;40.53;;;8.37;;
22794;SDS011;11564;50.920;11.612;2023-02-15T03:26:00;52.97;;;8.53;;
22794;SDS011;11564;50.920;11.612;2023-02-15T03:28:36;17.70;;;7.30;;
22794;SDS011;11564;50.920;11.612;2023-02-15T03:31:07;18.77;;;7.17;;
22794;SDS011;11564;50.920;11.612;2023-02-15T03:33:35;48.43;;;8.03;;
22794;SDS011;11564;50.920;11.612;2023-02-15T03:36:09;53.30;;;7.30;;
22794;SDS011;11564;50.920;11.612;2023-02-15T03:38:49;14.97;;;4.97;;
22794;SDS011;11564;50.920;11.612;2023-02-15T03:41:32;5.10;;;4.70;;
22794;SDS011;11564;50.920;11.612;2023-02-15T03:44:15;4.03;;;3.70;;
22794;SDS011;11564;50.920;11.612;2023-02-15T03:46:51;4.40;;;4.00;;
22794;SDS011;11564;50.920;11.612;2023-02-15T03:49:22;4.23;;;3.90;;
22794;SDS011;11564;50.920;11.612;2023-02-15T03:51:53;4.87;;;4.40;;
22794;SDS011;11564;50.920;11.612;2023-02-15T03:54:25;9.83;;;4.53;;
22794;SDS011;11564;50.920;11.612;2023-02-15T03:57:13;3.70;;;3.40;;
22794;SDS011;11564;50.920;11.612;2023-02-15T03:59:57;5.50;;;5.00;;
22794;SDS011;11564;50.920;11.612;2023-02-15T04:05:29;7.63;;;5.13;;
22794;SDS011;11564;50.920;11.612;2023-02-15T04:07:54;4.97;;;4.20;;
22794;SDS011;11564;50.920;11.612;2023-02-15T04:10:20;5.17;;;4.50;;
22794;SDS011;11564;50.920;11.612;2023-02-15T04:13:04;5.63;;;5.00;;
22794;SDS011;11564;50.920;11.612;2023-02-15T04:15:29;6.50;;;4.57;;
22794;SDS011;11564;50.920;11.612;2023-02-15T04:18:14;5.40;;;4.83;;
22794;SDS011;11564;50.920;11.612;2023-02-15T04:20:42;7.53;;;5.43;;
22794;SDS011;11564;50.920;11.612;2023-02-15T04:23:27;10.73;;;6.07;;
22794;SDS011;11564;50.920;11.612;2023-02-15T04:26:11;18.30;;;6.37;;
22794;SDS011;11564;50.920;11.612;2023-02-15T04:28:37;7.53;;;5.70;;
22794;SDS011;11564;50.920;11.612;2023-02-15T04:31:03;10.53;;;6.50;;
22794;SDS011;11564;50.920;11.612;2023-02-15T04:33:28;8.67;;;6.00;;
22794;SDS011;11564;50.920;11.612;2023-02-15T04:35:54;25.57;;;7.13;;
22794;SDS011;11564;50.920;11.612;2023-02-15T04:38:21;9.70;;;6.07;;
22794;SDS011;11564;50.920;11.612;2023-02-15T04:40:50;9.07;;;5.70;;
22794;SDS011;11564;50.920;11.612;2023-02-15T04:43:17;25.17;;;6.37;;
22794;SDS011;11564;50.920;11.612;2023-02-15T04:45:50;15.50;;;6.50;;
22794;SDS011;11564;50.920;11.612;2023-02-15T04:48:16;25.40;;;7.30;;
22794;SDS011;11564;50.920;11.612;2023-02-15T04:50:43;43.50;;;8.00;;
22794;SDS011;11564;50.920;11.612;2023-02-15T04:53:09;39.10;;;7.40;;
22794;SDS011;11564;50.920;11.612;2023-02-15T04:55:35;51.60;;;7.30;;
22794;SDS011;11564;50.920;11.612;2023-02-15T04:58:00;18.93;;;5.83;;
22794;SDS011;11564;50.920;11.612;2023-02-15T05:00:26;12.33;;;5.73;;
22794;SDS011;11564;50.920;11.612;2023-02-15T05:02:52;38.60;;;9.20;;
22794;SDS011;11564;50.920;11.612;2023-02-15T05:05:18;23.87;;;6.70;;
22794;SDS011;11564;50.920;11.612;2023-02-15T05:07:44;14.43;;;7.30;;
22794;SDS011;11564;50.920;11.612;2023-02-15T05:10:09;25.70;;;7.00;;
22794;SDS011;11564;50.920;11.612;2023-02-15T05:12:35;17.40;;;6.93;;
22794;SDS011;11564;50.920;11.612;2023-02-15T05:15:00;11.47;;;6.20;;
22794;SDS011;11564;50.920;11.612;2023-02-15T05:17:26;10.20;;;6.83;;
22794;SDS011;11564;50.920;11.612;2023-02-15T05:19:52;23.77;;;6.90;;
22794;SDS011;11564;50.920;11.612;2023-02-15T05:22:17;127.27;;;9.77;;
22794;SDS011;11564;50.920;11.612;2023-02-15T05:24:43;271.57;;;15.00;;
22794;SDS011;11564;50.920;11.612;2023-02-15T05:27:27;123.47;;;10.47;;
22794;SDS011;11564;50.920;11.612;2023-02-15T05:30:11;48.40;;;8.30;;
22794;SDS011;11564;50.920;11.612;2023-02-15T05:32:38;119.27;;;10.90;;
22794;SDS011;11564;50.920;11.612;2023-02-15T05:35:04;24.13;;;7.17;;
22794;SDS011;11564;50.920;11.612;2023-02-15T05:37:31;19.87;;;7.00;;
22794;SDS011;11564;50.920;11.612;2023-02-15T05:39:56;42.60;;;7.67;;
22794;SDS011;11564;50.920;11.612;2023-02-15T05:42:22;56.47;;;8.20;;
22794;SDS011;11564;50.920;11.612;2023-02-15T05:44:47;84.03;;;9.43;;
22794;SDS011;11564;50.920;11.612;2023-02-15T05:47:13;12.43;;;5.50;;
22794;SDS011;11564;50.920;11.612;2023-02-15T05:49:39;21.60;;;7.37;;
22794;SDS011;11564;50.920;11.612;2023-02-15T05:52:04;11.73;;;5.20;;
22794;SDS011;11564;50.920;11.612;2023-02-15T05:54:30;16.67;;;6.70;;
22794;SDS011;11564;50.920;11.612;2023-02-15T05:56:56;26.70;;;6.80;;
22794;SDS011;11564;50.920;11.612;2023-02-15T05:59:21;12.67;;;5.43;;
22794;SDS011;11564;50.920;11.612;2023-02-15T06:01:47;14.40;;;5.80;;
22794;SDS011;11564;50.920;11.612;2023-02-15T06:04:12;19.00;;;6.50;;
22794;SDS011;11564;50.920;11.612;2023-02-15T06:06:38;33.27;;;7.20;;
22794;SDS011;11564;50.920;11.612;2023-02-15T06:09:04;11.80;;;6.70;;
22794;SDS011;11564;50.920;11.612;2023-02-15T06:11:29;37.87;;;6.23;;
22794;SDS011;11564;50.920;11.612;2023-02-15T06:13:55;13.40;;;6.60;;
22794;SDS011;11564;50.920;11.612;2023-02-15T06:16:21;13.37;;;6.50;;
22794;SDS011;11564;50.920;11.612;2023-02-15T06:18:47;28.77;;;6.87;;
22794;SDS011;11564;50.920;11.612;2023-02-15T06:21:12;12.10;;;5.47;;
22794;SDS011;11564;50.920;11.612;2023-02-15T06:23:38;28.60;;;6.93;;
22794;SDS011;11564;50.920;11.612;2023-02-15T06:26:04;15.20;;;5.30;;
22794;SDS011;11564;50.920;11.612;2023-02-15T06:28:29;13.20;;;5.60;;
22794;SDS011;11564;50.920;11.612;2023-02-15T06:30:55;36.00;;;6.70;;
22794;SDS011;11564;50.920;11.612;2023-02-15T06:33:21;7.70;;;5.33;;
22794;SDS011;11564;50.920;11.612;2023-02-15T06:35:47;22.17;;;6.80;;
22794;SDS011;11564;50.920;11.612;2023-02-15T06:38:13;38.43;;;6.63;;
22794;SDS011;11564;50.920;11.612;2023-02-15T06:40:39;19.97;;;5.60;;
22794;SDS011;11564;50.920;11.612;2023-02-15T06:43:04;5.47;;;4.90;;
22794;SDS011;11564;50.920;11.612;2023-02-15T06:45:30;25.03;;;6.80;;
22794;SDS011;11564;50.920;11.612;2023-02-15T06:47:56;26.07;;;6.33;;
22794;SDS011;11564;50.920;11.612;2023-02-15T06:50:21;48.67;;;7.80;;
22794;SDS011;11564;50.920;11.612;2023-02-15T06:52:47;89.27;;;8.00;;
22794;SDS011;11564;50.920;11.612;2023-02-15T06:55:12;42.93;;;6.40;;
22794;SDS011;11564;50.920;11.612;2023-02-15T06:57:38;80.50;;;9.17;;
22794;SDS011;11564;50.920;11.612;2023-02-15T07:00:04;87.17;;;9.60;;
22794;SDS011;11564;50.920;11.612;2023-02-15T07:02:30;59.53;;;7.47;;
22794;SDS011;11564;50.920;11.612;2023-02-15T07:04:56;166.70;;;10.33;;
22794;SDS011;11564;50.920;11.612;2023-02-15T07:07:23;163.07;;;11.57;;
22794;SDS011;11564;50.920;11.612;2023-02-15T07:09:48;20.43;;;5.40;;
22794;SDS011;11564;50.920;11.612;2023-02-15T07:12:14;108.27;;;7.83;;
22794;SDS011;11564;50.920;11.612;2023-02-15T07:14:58;45.93;;;6.47;;
22794;SDS011;11564;50.920;11.612;2023-02-15T07:17:24;32.40;;;6.00;;
22794;SDS011;11564;50.920;11.612;2023-02-15T07:19:53;81.80;;;7.33;;
22794;SDS011;11564;50.920;11.612;2023-02-15T07:22:19;26.27;;;5.50;;
22794;SDS011;11564;50.920;11.612;2023-02-15T07:24:45;21.90;;;5.27;;
22794;SDS011;11564;50.920;11.612;2023-02-15T07:27:10;95.33;;;8.93;;
22794;SDS011;11564;50.920;11.612;2023-02-15T07:29:36;80.00;;;6.83;;
22794;SDS011;11564;50.920;11.612;2023-02-15T07:32:01;51.17;;;6.83;;
22794;SDS011;11564;50.920;11.612;2023-02-15T07:34:27;79.37;;;7.50;;
22794;SDS011;11564;50.920;11.612;2023-02-15T07:36:53;78.17;;;8.83;;
22794;SDS011;11564;50.920;11.612;2023-02-15T07:39:18;65.67;;;8.50;;
22794;SDS011;11564;50.920;11.612;2023-02-15T07:41:44;56.10;;;8.10;;
22794;SDS011;11564;50.920;11.612;2023-02-15T07:44:13;89.77;;;9.30;;
22794;SDS011;11564;50.920;11.612;2023-02-15T07:46:39;10.60;;;5.20;;
22794;SDS011;11564;50.920;11.612;2023-02-15T07:49:06;46.23;;;7.53;;
22794;SDS011;11564;50.920;11.612;2023-02-15T07:51:31;30.57;;;7.00;;
22794;SDS011;11564;50.920;11.612;2023-02-15T07:53:57;37.13;;;6.20;;
22794;SDS011;11564;50.920;11.612;2023-02-15T07:56:22;24.00;;;7.17;;
22794;SDS011;11564;50.920;11.612;2023-02-15T07:58:48;14.50;;;6.53;;
22794;SDS011;11564;50.920;11.612;2023-02-15T08:01:21;97.73;;;8.90;;
22794;SDS011;11564;50.920;11.612;2023-02-15T08:03:48;61.20;;;8.33;;
22794;SDS011;11564;50.920;11.612;2023-02-15T08:06:14;153.33;;;11.27;;
22794;SDS011;11564;50.920;11.612;2023-02-15T08:08:40;23.83;;;6.47;;
22794;SDS011;11564;50.920;11.612;2023-02-15T08:14:10;47.90;;;7.53;;
22794;SDS011;11564;50.920;11.612;2023-02-15T08:16:45;34.70;;;6.43;;
22794;SDS011;11564;50.920;11.612;2023-02-15T08:19:21;57.43;;;7.57;;
22794;SDS011;11564;50.920;11.612;2023-02-15T08:21:58;74.43;;;7.63;;
22794;SDS011;11564;50.920;11.612;2023-02-15T08:24:26;130.97;;;10.63;;
22794;SDS011;11564;50.920;11.612;2023-02-15T08:26:53;133.03;;;11.30;;
22794;SDS011;11564;50.920;11.612;2023-02-15T08:29:20;30.47;;;7.27;;
22794;SDS011;11564;50.920;11.612;2023-02-15T08:31:47;52.17;;;8.20;;
22794;SDS011;11564;50.920;11.612;2023-02-15T08:34:16;38.00;;;8.80;;
22794;SDS011;11564;50.920;11.612;2023-02-15T08:36:43;16.83;;;6.10;;
22794;SDS011;11564;50.920;11.612;2023-02-15T08:39:10;67.53;;;9.53;;
22794;SDS011;11564;50.920;11.612;2023-02-15T08:41:36;41.37;;;7.97;;
22794;SDS011;11564;50.920;11.612;2023-02-15T08:44:04;36.53;;;6.53;;
22794;SDS011;11564;50.920;11.612;2023-02-15T08:46:32;31.00;;;6.87;;
22794;SDS011;11564;50.920;11.612;2023-02-15T08:48:59;23.30;;;6.13;;
22794;SDS011;11564;50.920;11.612;2023-02-15T08:51:26;41.03;;;7.43;;
22794;SDS011;11564;50.920;11.612;2023-02-15T08:53:54;11.43;;;5.70;;
22794;SDS011;11564;50.920;11.612;2023-02-15T08:56:27;5.40;;;4.90;;
22794;SDS011;11564;50.920;11.612;2023-02-15T08:58:54;6.80;;;4.90;;
22794;SDS011;11564;50.920;11.612;2023-02-15T09:01:21;22.03;;;5.93;;
22794;SDS011;11564;50.920;11.612;2023-02-15T09:03:51;38.00;;;6.50;;
22794;SDS011;11564;50.920;11.612;2023-02-15T09:06:21;23.60;;;6.30;;
22794;SDS011;11564;50.920;11.612;2023-02-15T09:08:47;21.07;;;6.00;;
22794;SDS011;11564;50.920;11.612;2023-02-15T09:11:17;20.70;;;6.40;;
22794;SDS011;11564;50.920;11.612;2023-02-15T09:13:52;22.10;;;7.37;;
22794;SDS011;11564;50.920;11.612;2023-02-15T09:16:20;30.20;;;8.37;;
22794;SDS011;11564;50.920;11.612;2023-02-15T09:18:46;32.27;;;7.53;;
22794;SDS011;11564;50.920;11.612;2023-02-15T09:21:16;31.93;;;7.37;;
22794;SDS011;11564;50.920;11.612;2023-02-15T09:23:44;25.67;;;8.47;;
22794;SDS011;11564;50.920;11.612;2023-02-15T09:26:12;27.47;;;8.10;;
22794;SDS011;11564;50.920;11.612;2023-02-15T09:28:40;17.27;;;7.40;;
22794;SDS011;11564;50.920;11.612;2023-02-15T09:33:35;12.93;;;7.60;;
22794;SDS011;11564;50.920;11.612;2023-02-15T09:36:01;20.80;;;7.60;;
22794;SDS011;11564;50.920;11.612;2023-02-15T09:38:30;14.67;;;7.60;;
22794;SDS011;11564;50.920;11.612;2023-02-15T09:41:23;12.90;;;8.47;;
22794;SDS011;11564;50.920;11.612;2023-02-15T09:46:46;15.30;;;8.30;;
22794;SDS011;11564;50.920;11.612;2023-02-15T09:55:38;8.47;;;7.30;;
22794;SDS011;11564;50.920;11.612;2023-02-15T10:06:40;14.60;;;8.47;;
22794;SDS011;11564;50.920;11.612;2023-02-15T10:17:55;7.63;;;6.87;;
22794;SDS011;11564;50.920;11.612;2023-02-15T10:20:55;7.33;;;5.90;;
22794;SDS011;11564;50.920;11.612;2023-02-15T10:23:47;6.63;;;6.00;;
22794;SDS011;11564;50.920;11.612;2023-02-15T10:26:20;7.80;;;6.60;;
22794;SDS011;11564;50.920;11.612;2023-02-15T10:28:51;7.10;;;6.30;;
22794;SDS011;11564;50.920;11.612;2023-02-15T10:33:58;8.50;;;6.27;;
22794;SDS011;11564;50.920;11.612;2023-02-15T10:39:25;8.23;;;6.63;;
22794;SDS011;11564;50.920;11.612;2023-02-15T10:42:14;8.40;;;6.70;;
22794;SDS011;11564;50.920;11.612;2023-02-15T10:50:26;7.27;;;6.40;;
22794;SDS011;11564;50.920;11.612;2023-02-15T10:56:07;6.83;;;5.90;;
22794;SDS011;11564;50.920;11.612;2023-02-15T11:01:40;10.40;;;7.13;;
22794;SDS011;11564;50.920;11.612;2023-02-15T11:07:21;7.63;;;6.17;;
22794;SDS011;11564;50.920;11.612;2023-02-15T11:09:53;9.20;;;6.53;;
22794;SDS011;11564;50.920;11.612;2023-02-15T11:12:31;11.37;;;6.60;;
22794;SDS011;11564;50.920;11.612;2023-02-15T11:15:01;7.73;;;6.37;;
22794;SDS011;11564;50.920;11.612;2023-02-15T11:17:48;7.00;;;6.27;;
22794;SDS011;11564;50.920;11.612;2023-02-15T11:20:26;9.00;;;5.77;;
22794;SDS011;11564;50.920;11.612;2023-02-15T11:22:58;6.13;;;5.23;;
22794;SDS011;11564;50.920;11.612;2023-02-15T11:25:32;6.87;;;5.60;;
22794;SDS011;11564;50.920;11.612;2023-02-15T11:27:59;7.10;;;5.03;;
22794;SDS011;11564;50.920;11.612;2023-02-15T11:30:35;6.13;;;5.40;;
22794;SDS011;11564;50.920;11.612;2023-02-15T11:33:12;5.73;;;5.20;;
22794;SDS011;11564;50.920;11.612;2023-02-15T11:36:05;8.27;;;5.43;;
22794;SDS011;11564;50.920;11.612;2023-02-15T11:38:32;6.47;;;5.17;;
22794;SDS011;11564;50.920;11.612;2023-02-15T11:41:03;4.83;;;4.10;;
22794;SDS011;11564;50.920;11.612;2023-02-15T11:43:44;4.50;;;4.10;;
22794;SDS011;11564;50.920;11.612;2023-02-15T11:46:20;8.30;;;5.03;;
22794;SDS011;11564;50.920;11.612;2023-02-15T11:48:46;6.77;;;4.03;;
22794;SDS011;11564;50.920;11.612;2023-02-15T11:51:14;4.50;;;3.93;;
22794;SDS011;11564;50.920;11.612;2023-02-15T11:53:42;4.70;;;4.30;;
22794;SDS011;11564;50.920;11.612;2023-02-15T11:56:27;7.43;;;4.60;;
22794;SDS011;11564;50.920;11.612;2023-02-15T11:58:58;4.47;;;4.07;;
22794;SDS011;11564;50.920;11.612;2023-02-15T12:01:32;8.30;;;4.40;;
22794;SDS011;11564;50.920;11.612;2023-02-15T12:04:06;4.57;;;4.17;;
22794;SDS011;11564;50.920;11.612;2023-02-15T12:07:25;5.07;;;4.10;;
22794;SDS011;11564;50.920;11.612;2023-02-15T12:10:03;4.30;;;3.90;;
22794;SDS011;11564;50.920;11.612;2023-02-15T12:12:32;15.73;;;5.10;;
22794;SDS011;11564;50.920;11.612;2023-02-15T12:15:00;7.33;;;3.97;;
22794;SDS011;11564;50.920;11.612;2023-02-15T12:17:29;5.83;;;4.10;;
22794;SDS011;11564;50.920;11.612;2023-02-15T12:20:07;8.67;;;4.30;;
22794;SDS011;11564;50.920;11.612;2023-02-15T12:22:59;10.70;;;4.03;;
22794;SDS011;11564;50.920;11.612;2023-02-15T12:26:13;7.33;;;4.40;;
22794;SDS011;11564;50.920;11.612;2023-02-15T12:30:50;3.00;;;2.80;;
22794;SDS011;11564;50.920;11.612;2023-02-15T12:33:28;9.43;;;3.53;;
22794;SDS011;11564;50.920;11.612;2023-02-15T12:36:03;4.17;;;3.40;;
22794;SDS011;11564;50.920;11.612;2023-02-15T12:38:37;8.50;;;3.50;;
22794;SDS011;11564;50.920;11.612;2023-02-15T12:44:02;4.50;;;4.10;;
22794;SDS011;11564;50.920;11.612;2023-02-15T12:46:28;4.57;;;3.97;;
22794;SDS011;11564;50.920;11.612;2023-02-15T12:49:10;4.73;;;4.30;;
22794;SDS011;11564;50.920;11.612;2023-02-15T12:51:46;7.40;;;3.87;;
22794;SDS011;11564;50.920;11.612;2023-02-15T12:57:13;6.70;;;2.97;;
22794;SDS011;11564;50.920;11.612;2023-02-15T12:59:58;7.43;;;3.60;;
22794;SDS011;11564;50.920;11.612;2023-02-15T13:02:47;2.77;;;2.60;;
22794;SDS011;11564;50.920;11.612;2023-02-15T13:07:53;3.57;;;2.60;;
22794;SDS011;11564;50.920;11.612;2023-02-15T13:10:29;8.63;;;2.87;;
22794;SDS011;11564;50.920;11.612;2023-02-15T13:12:58;2.30;;;2.10;;
22794;SDS011;11564;50.920;11.612;2023-02-15T13:15:32;3.20;;;2.73;;
22794;SDS011;11564;50.920;11.612;2023-02-15T13:18:01;2.13;;;2.00;;
22794;SDS011;11564;50.920;11.612;2023-02-15T13:20:29;6.47;;;2.30;;
22794;SDS011;11564;50.920;11.612;2023-02-15T13:23:00;2.27;;;2.10;;
22794;SDS011;11564;50.920;11.612;2023-02-15T13:25:31;5.03;;;2.53;;
22794;SDS011;11564;50.920;11.612;2023-02-15T13:28:05;1.70;;;1.60;;
22794;SDS011;11564;50.920;11.612;2023-02-15T13:30:36;1.53;;;1.43;;
22794;SDS011;11564;50.920;11.612;2023-02-15T13:33:22;1.50;;;1.40;;
22794;SDS011;11564;50.920;11.612;2023-02-15T13:38:32;1.77;;;1.23;;
22794;SDS011;11564;50.920;11.612;2023-02-15T13:41:15;1.50;;;1.40;;
22794;SDS011;11564;50.920;11.612;2023-02-15T14:10:54;1.97;;;1.60;;
22794;SDS011;11564;50.920;11.612;2023-02-15T14:13:53;3.73;;;3.37;;
22794;SDS011;11564;50.920;11.612;2023-02-15T14:28:05;1.57;;;1.33;;
22794;SDS011;11564;50.920;11.612;2023-02-15T14:30:48;1.70;;;1.60;;
22794;SDS011;11564;50.920;11.612;2023-02-15T14:35:49;1.57;;;1.47;;
22794;SDS011;11564;50.920;11.612;2023-02-15T14:49:25;2.93;;;2.60;;
22794;SDS011;11564;50.920;11.612;2023-02-15T14:51:55;4.40;;;3.30;;
22794;SDS011;11564;50.920;11.612;2023-02-15T15:00:23;5.30;;;3.60;;
22794;SDS011;11564;50.920;11.612;2023-02-15T15:02:26;4.50;;;3.00;;
22794;SDS011;11564;50.920;11.612;2023-02-15T15:08:01;6.73;;;3.27;;
22794;SDS011;11564;50.920;11.612;2023-02-15T15:10:39;4.23;;;3.43;;
22794;SDS011;11564;50.920;11.612;2023-02-15T15:13:34;4.17;;;3.30;;
22794;SDS011;11564;50.920;11.612;2023-02-15T15:15:56;3.60;;;3.10;;
22794;SDS011;11564;50.920;11.612;2023-02-15T15:18:43;7.07;;;3.73;;
22794;SDS011;11564;50.920;11.612;2023-02-15T15:21:10;4.20;;;3.80;;
22794;SDS011;11564;50.920;11.612;2023-02-15T15:26:20;4.23;;;3.83;;
22794;SDS011;11564;50.920;11.612;2023-02-15T15:29:01;6.70;;;5.83;;
22794;SDS011;11564;50.920;11.612;2023-02-15T15:31:34;9.27;;;7.87;;
22794;SDS011;11564;50.920;11.612;2023-02-15T15:42:22;5.00;;;4.50;;
22794;SDS011;11564;50.920;11.612;2023-02-15T15:45:34;8.27;;;5.23;;
22794;SDS011;11564;50.920;11.612;2023-02-15T15:50:40;5.00;;;4.60;;
22794;SDS011;11564;50.920;11.612;2023-02-15T15:53:06;11.63;;;5.33;;
22794;SDS011;11564;50.920;11.612;2023-02-15T15:55:52;5.10;;;4.60;;
22794;SDS011;11564;50.920;11.612;2023-02-15T15:58:23;7.23;;;4.70;;
22794;SDS011;11564;50.920;11.612;2023-02-15T16:00:50;5.37;;;4.87;;
22794;SDS011;11564;50.920;11.612;2023-02-15T16:03:22;4.93;;;4.13;;
22794;SDS011;11564;50.920;11.612;2023-02-15T16:05:49;7.50;;;5.17;;
22794;SDS011;11564;50.920;11.612;2023-02-15T16:08:26;6.87;;;5.80;;
22794;SDS011;11564;50.920;11.612;2023-02-15T16:10:53;5.60;;;5.10;;
22794;SDS011;11564;50.920;11.612;2023-02-15T16:13:19;6.00;;;5.33;;
22794;SDS011;11564;50.920;11.612;2023-02-15T16:15:46;10.90;;;5.33;;
22794;SDS011;11564;50.920;11.612;2023-02-15T16:18:18;6.07;;;5.40;;
22794;SDS011;11564;50.920;11.612;2023-02-15T16:20:56;7.63;;;5.80;;
22794;SDS011;11564;50.920;11.612;2023-02-15T16:29:13;8.70;;;7.30;;
22794;SDS011;11564;50.920;11.612;2023-02-15T16:31:40;12.70;;;7.90;;
22794;SDS011;11564;50.920;11.612;2023-02-15T16:34:09;7.10;;;6.07;;
22794;SDS011;11564;50.920;11.612;2023-02-15T16:36:42;10.70;;;8.43;;
22794;SDS011;11564;50.920;11.612;2023-02-15T16:39:09;12.83;;;8.60;;
22794;SDS011;11564;50.920;11.612;2023-02-15T16:41:42;13.47;;;9.50;;
22794;SDS011;11564;50.920;11.612;2023-02-15T16:44:20;11.43;;;7.60;;
22794;SDS011;11564;50.920;11.612;2023-02-15T16:46:46;20.03;;;14.60;;
22794;SDS011;11564;50.920;11.612;2023-02-15T16:49:22;24.13;;;18.27;;
22794;SDS011;11564;50.920;11.612;2023-02-15T16:52:03;18.50;;;11.57;;
22794;SDS011;11564;50.920;11.612;2023-02-15T16:54:30;12.70;;;8.47;;
22794;SDS011;11564;50.920;11.612;2023-02-15T16:56:57;11.00;;;9.90;;
22794;SDS011;11564;50.920;11.612;2023-02-15T16:59:38;14.37;;;11.63;;
22794;SDS011;11564;50.920;11.612;2023-02-15T17:02:19;11.33;;;8.30;;
22794;SDS011;11564;50.920;11.612;2023-02-15T17:05:00;8.90;;;7.60;;
22794;SDS011;11564;50.920;11.612;2023-02-15T17:08:18;22.50;;;13.27;;
22794;SDS011;11564;50.920;11.612;2023-02-15T17:13:23;27.53;;;16.57;;
22794;SDS011;11564;50.920;11.612;2023-02-15T17:18:38;20.93;;;14.67;;
22794;SDS011;11564;50.920;11.612;2023-02-15T17:21:19;23.30;;;15.60;;
22794;SDS011;11564;50.920;11.612;2023-02-15T17:23:47;17.60;;;10.57;;
22794;SDS011;11564;50.920;11.612;2023-02-15T17:26:22;9.63;;;8.50;;
22794;SDS011;11564;50.920;11.612;2023-02-15T17:28:51;10.10;;;8.87;;
22794;SDS011;11564;50.920;11.612;2023-02-15T17:31:24;10.87;;;6.90;;
22794;SDS011;11564;50.920;11.612;2023-02-15T17:33:54;10.17;;;8.03;;
22794;SDS011;11564;50.920;11.612;2023-02-15T17:36:22;14.30;;;8.70;;
22794;SDS011;11564;50.920;11.612;2023-02-15T17:41:45;9.30;;;7.60;;
22794;SDS011;11564;50.920;11.612;2023-02-15T17:44:12;7.50;;;6.37;;
22794;SDS011;11564;50.920;11.612;2023-02-15T17:46:40;8.50;;;7.60;;